Terminal Aerodrome Forecast
Issued by NWS

Home | Current Version | Previous Version | Text Only | Print | Product List | Glossary On
Versions: 1 2 3 4 5 6 7 8 9 10 11 12 13 14 15 16 17 18 19 20 21 22 23 24 25 26 27 28 29 30 31 32
000
FTUS46 KMTR 250913 AAB
TAFSFO
TAF AMD
KSFO 250913Z 2509/2612 28005KT P6SM FEW013 BKN025 BKN090
      TEMPO 2509/2510 SCT013 SCT050 BKN100
     FM251200 29006KT P6SM BKN015
     FM251900 30008KT P6SM SCT015 BKN030
     FM252100 29012KT P6SM FEW015 SCT030 BKN050
     FM260000 28015KT P6SM FEW015 FEW030 BKN050
     FM260400 27010KT P6SM FEW015 FEW030 BKN100=

USA.gov is the U.S. government's official web portal to all federal, state and local government web resources and services.